sensor_id;sensor_type;location;lat;lon;timestamp;temperature;humidity
8463;DHT22;4268;52.506;13.462;2023-12-20T00:02:09;7.40;99.90
8463;DHT22;4268;52.506;13.462;2023-12-20T00:04:34;7.40;99.90
8463;DHT22;4268;52.506;13.462;2023-12-20T00:07:00;7.40;99.90
8463;DHT22;4268;52.506;13.462;2023-12-20T00:09:26;7.40;99.90
8463;DHT22;4268;52.506;13.462;2023-12-20T00:11:52;7.40;99.90
8463;DHT22;4268;52.506;13.462;2023-12-20T00:14:18;7.40;99.90
8463;DHT22;4268;52.506;13.462;2023-12-20T00:16:43;7.40;99.90
8463;DHT22;4268;52.506;13.462;2023-12-20T00:19:08;7.40;99.90
8463;DHT22;4268;52.506;13.462;2023-12-20T00:21:34;7.40;99.90
8463;DHT22;4268;52.506;13.462;2023-12-20T00:23:59;7.40;99.90
8463;DHT22;4268;52.506;13.462;2023-12-20T00:26:25;7.40;99.90
8463;DHT22;4268;52.506;13.462;2023-12-20T00:28:51;7.40;99.90
8463;DHT22;4268;52.506;13.462;2023-12-20T00:31:16;7.50;99.90
8463;DHT22;4268;52.506;13.462;2023-12-20T00:33:42;7.40;99.90
8463;DHT22;4268;52.506;13.462;2023-12-20T00:36:09;7.40;99.90
8463;DHT22;4268;52.506;13.462;2023-12-20T00:38:35;7.40;99.90
8463;DHT22;4268;52.506;13.462;2023-12-20T00:41:00;7.40;99.90
8463;DHT22;4268;52.506;13.462;2023-12-20T00:43:26;7.40;99.90
8463;DHT22;4268;52.506;13.462;2023-12-20T00:45:52;7.40;99.90
8463;DHT22;4268;52.506;13.462;2023-12-20T00:48:17;7.40;99.90
8463;DHT22;4268;52.506;13.462;2023-12-20T00:50:43;7.40;99.90
8463;DHT22;4268;52.506;13.462;2023-12-20T00:53:08;7.40;99.90
8463;DHT22;4268;52.506;13.462;2023-12-20T00:55:34;7.40;99.90
8463;DHT22;4268;52.506;13.462;2023-12-20T00:57:59;7.40;99.90
8463;DHT22;4268;52.506;13.462;2023-12-20T01:00:25;7.40;99.90
8463;DHT22;4268;52.506;13.462;2023-12-20T01:02:51;7.40;99.90
8463;DHT22;4268;52.506;13.462;2023-12-20T01:05:17;7.40;99.90
8463;DHT22;4268;52.506;13.462;2023-12-20T01:07:43;7.40;99.90
8463;DHT22;4268;52.506;13.462;2023-12-20T01:10:09;7.40;99.90
8463;DHT22;4268;52.506;13.462;2023-12-20T01:12:36;7.40;99.90
8463;DHT22;4268;52.506;13.462;2023-12-20T01:15:01;7.40;99.90
8463;DHT22;4268;52.506;13.462;2023-12-20T01:17:27;7.40;99.90
8463;DHT22;4268;52.506;13.462;2023-12-20T01:19:52;7.40;99.90
8463;DHT22;4268;52.506;13.462;2023-12-20T01:22:18;7.40;99.90
8463;DHT22;4268;52.506;13.462;2023-12-20T01:24:44;7.40;99.90
8463;DHT22;4268;52.506;13.462;2023-12-20T01:27:09;7.40;99.90
8463;DHT22;4268;52.506;13.462;2023-12-20T01:29:35;7.40;99.90
8463;DHT22;4268;52.506;13.462;2023-12-20T01:32:00;7.40;99.90
8463;DHT22;4268;52.506;13.462;2023-12-20T01:34:26;7.40;99.90
8463;DHT22;4268;52.506;13.462;2023-12-20T01:36:51;7.40;99.90
8463;DHT22;4268;52.506;13.462;2023-12-20T01:39:17;7.40;99.90
8463;DHT22;4268;52.506;13.462;2023-12-20T01:41:43;7.40;99.90
8463;DHT22;4268;52.506;13.462;2023-12-20T01:44:09;7.40;99.90
8463;DHT22;4268;52.506;13.462;2023-12-20T01:46:34;7.40;99.90
8463;DHT22;4268;52.506;13.462;2023-12-20T01:49:00;7.40;99.90
8463;DHT22;4268;52.506;13.462;2023-12-20T01:51:26;7.40;99.90
8463;DHT22;4268;52.506;13.462;2023-12-20T01:53:53;7.40;99.90
8463;DHT22;4268;52.506;13.462;2023-12-20T01:56:20;7.40;99.90
8463;DHT22;4268;52.506;13.462;2023-12-20T01:58:46;7.40;99.90
8463;DHT22;4268;52.506;13.462;2023-12-20T02:01:13;7.40;99.90
8463;DHT22;4268;52.506;13.462;2023-12-20T02:03:40;7.40;99.90
8463;DHT22;4268;52.506;13.462;2023-12-20T02:06:07;7.40;99.90
8463;DHT22;4268;52.506;13.462;2023-12-20T02:08:33;7.40;99.90
8463;DHT22;4268;52.506;13.462;2023-12-20T02:11:00;7.40;99.90
8463;DHT22;4268;52.506;13.462;2023-12-20T02:13:25;7.40;99.90
8463;DHT22;4268;52.506;13.462;2023-12-20T02:15:52;7.40;99.90
8463;DHT22;4268;52.506;13.462;2023-12-20T02:18:17;7.40;99.90
8463;DHT22;4268;52.506;13.462;2023-12-20T02:20:43;7.30;99.90
8463;DHT22;4268;52.506;13.462;2023-12-20T02:23:09;7.40;99.90
8463;DHT22;4268;52.506;13.462;2023-12-20T02:25:34;7.40;99.90
8463;DHT22;4268;52.506;13.462;2023-12-20T02:28:00;7.30;99.90
8463;DHT22;4268;52.506;13.462;2023-12-20T02:30:26;7.30;99.90
8463;DHT22;4268;52.506;13.462;2023-12-20T02:32:52;7.30;99.90
8463;DHT22;4268;52.506;13.462;2023-12-20T02:35:18;7.20;99.90
8463;DHT22;4268;52.506;13.462;2023-12-20T02:37:44;7.20;99.90
8463;DHT22;4268;52.506;13.462;2023-12-20T02:40:09;7.20;99.90
8463;DHT22;4268;52.506;13.462;2023-12-20T02:42:35;7.20;99.90
8463;DHT22;4268;52.506;13.462;2023-12-20T02:45:01;7.20;99.90
8463;DHT22;4268;52.506;13.462;2023-12-20T02:47:26;7.20;99.90
8463;DHT22;4268;52.506;13.462;2023-12-20T02:49:52;7.20;99.90
8463;DHT22;4268;52.506;13.462;2023-12-20T02:52:18;7.30;99.90
8463;DHT22;4268;52.506;13.462;2023-12-20T02:54:44;7.30;99.90
8463;DHT22;4268;52.506;13.462;2023-12-20T02:57:09;7.20;99.90
8463;DHT22;4268;52.506;13.462;2023-12-20T02:59:35;7.30;99.90
8463;DHT22;4268;52.506;13.462;2023-12-20T03:02:00;7.30;99.90
8463;DHT22;4268;52.506;13.462;2023-12-20T03:04:26;7.30;99.90
8463;DHT22;4268;52.506;13.462;2023-12-20T03:06:51;7.30;99.90
8463;DHT22;4268;52.506;13.462;2023-12-20T03:09:17;7.30;99.90
8463;DHT22;4268;52.506;13.462;2023-12-20T03:11:42;7.30;99.90
8463;DHT22;4268;52.506;13.462;2023-12-20T03:14:08;7.30;99.90
8463;DHT22;4268;52.506;13.462;2023-12-20T03:16:33;7.30;99.90
8463;DHT22;4268;52.506;13.462;2023-12-20T03:18:59;7.30;99.90
8463;DHT22;4268;52.506;13.462;2023-12-20T03:21:24;7.30;99.90
8463;DHT22;4268;52.506;13.462;2023-12-20T03:23:50;7.30;99.90
8463;DHT22;4268;52.506;13.462;2023-12-20T03:26:15;7.30;99.90
8463;DHT22;4268;52.506;13.462;2023-12-20T03:28:41;7.30;99.90
8463;DHT22;4268;52.506;13.462;2023-12-20T03:31:06;7.30;99.90
8463;DHT22;4268;52.506;13.462;2023-12-20T03:33:32;7.30;99.90
8463;DHT22;4268;52.506;13.462;2023-12-20T03:35:57;7.20;99.90
8463;DHT22;4268;52.506;13.462;2023-12-20T03:38:23;7.20;99.90
8463;DHT22;4268;52.506;13.462;2023-12-20T03:40:51;7.20;99.90
8463;DHT22;4268;52.506;13.462;2023-12-20T03:43:17;7.20;99.90
8463;DHT22;4268;52.506;13.462;2023-12-20T03:45:43;7.20;99.90
8463;DHT22;4268;52.506;13.462;2023-12-20T03:48:08;7.20;99.90
8463;DHT22;4268;52.506;13.462;2023-12-20T03:50:34;7.10;99.90
8463;DHT22;4268;52.506;13.462;2023-12-20T03:53:00;7.20;99.90
8463;DHT22;4268;52.506;13.462;2023-12-20T03:55:26;7.20;99.90
8463;DHT22;4268;52.506;13.462;2023-12-20T03:57:51;7.10;99.90
8463;DHT22;4268;52.506;13.462;2023-12-20T04:00:17;7.20;99.90
8463;DHT22;4268;52.506;13.462;2023-12-20T04:02:42;7.10;99.90
8463;DHT22;4268;52.506;13.462;2023-12-20T04:05:09;7.10;99.90
8463;DHT22;4268;52.506;13.462;2023-12-20T04:07:35;7.10;99.90
8463;DHT22;4268;52.506;13.462;2023-12-20T04:10:01;7.10;99.90
8463;DHT22;4268;52.506;13.462;2023-12-20T04:12:28;7.00;99.90
8463;DHT22;4268;52.506;13.462;2023-12-20T04:14:53;7.10;99.90
8463;DHT22;4268;52.506;13.462;2023-12-20T04:17:19;7.10;99.90
8463;DHT22;4268;52.506;13.462;2023-12-20T04:19:45;7.00;99.90
8463;DHT22;4268;52.506;13.462;2023-12-20T04:22:10;7.00;99.90
8463;DHT22;4268;52.506;13.462;2023-12-20T04:24:36;7.00;99.90
8463;DHT22;4268;52.506;13.462;2023-12-20T04:27:01;7.00;99.90
8463;DHT22;4268;52.506;13.462;2023-12-20T04:29:27;7.00;99.90
8463;DHT22;4268;52.506;13.462;2023-12-20T04:31:53;6.90;99.90
8463;DHT22;4268;52.506;13.462;2023-12-20T04:34:18;6.80;99.90
8463;DHT22;4268;52.506;13.462;2023-12-20T04:36:44;6.80;99.90
8463;DHT22;4268;52.506;13.462;2023-12-20T04:39:11;6.80;99.90
8463;DHT22;4268;52.506;13.462;2023-12-20T04:41:36;6.70;99.90
8463;DHT22;4268;52.506;13.462;2023-12-20T04:44:02;6.70;99.90
8463;DHT22;4268;52.506;13.462;2023-12-20T04:46:27;6.70;99.90
8463;DHT22;4268;52.506;13.462;2023-12-20T04:48:53;6.60;99.90
8463;DHT22;4268;52.506;13.462;2023-12-20T04:51:21;6.50;99.90
8463;DHT22;4268;52.506;13.462;2023-12-20T04:53:47;6.50;99.90
8463;DHT22;4268;52.506;13.462;2023-12-20T04:56:12;6.50;99.90
8463;DHT22;4268;52.506;13.462;2023-12-20T04:58:38;6.50;99.90
8463;DHT22;4268;52.506;13.462;2023-12-20T05:01:08;6.50;99.90
8463;DHT22;4268;52.506;13.462;2023-12-20T05:03:33;6.40;99.90
8463;DHT22;4268;52.506;13.462;2023-12-20T05:05:59;6.40;99.90
8463;DHT22;4268;52.506;13.462;2023-12-20T05:08:24;6.40;99.90
8463;DHT22;4268;52.506;13.462;2023-12-20T05:10:56;6.40;99.90
8463;DHT22;4268;52.506;13.462;2023-12-20T05:13:22;6.50;99.90
8463;DHT22;4268;52.506;13.462;2023-12-20T05:15:47;6.50;99.90
8463;DHT22;4268;52.506;13.462;2023-12-20T05:18:13;6.50;99.90
8463;DHT22;4268;52.506;13.462;2023-12-20T05:20:39;6.60;99.90
8463;DHT22;4268;52.506;13.462;2023-12-20T05:23:05;6.60;99.90
8463;DHT22;4268;52.506;13.462;2023-12-20T05:25:31;6.60;99.90
8463;DHT22;4268;52.506;13.462;2023-12-20T05:27:56;6.60;99.90
8463;DHT22;4268;52.506;13.462;2023-12-20T05:30:22;6.60;99.90
8463;DHT22;4268;52.506;13.462;2023-12-20T05:32:48;6.50;99.90
8463;DHT22;4268;52.506;13.462;2023-12-20T05:35:13;6.40;99.90
8463;DHT22;4268;52.506;13.462;2023-12-20T05:37:39;6.40;99.90
8463;DHT22;4268;52.506;13.462;2023-12-20T05:40:05;6.50;99.90
8463;DHT22;4268;52.506;13.462;2023-12-20T05:42:31;6.30;99.90
8463;DHT22;4268;52.506;13.462;2023-12-20T05:44:56;6.30;99.90
8463;DHT22;4268;52.506;13.462;2023-12-20T05:47:22;6.50;99.90
8463;DHT22;4268;52.506;13.462;2023-12-20T05:49:48;5.40;99.90
8463;DHT22;4268;52.506;13.462;2023-12-20T05:52:16;6.10;99.90
8463;DHT22;4268;52.506;13.462;2023-12-20T05:54:41;6.00;99.90
8463;DHT22;4268;52.506;13.462;2023-12-20T05:57:07;5.80;99.90
8463;DHT22;4268;52.506;13.462;2023-12-20T05:59:42;5.80;99.90
8463;DHT22;4268;52.506;13.462;2023-12-20T06:02:45;6.50;99.90
8463;DHT22;4268;52.506;13.462;2023-12-20T06:05:24;5.60;99.90
8463;DHT22;4268;52.506;13.462;2023-12-20T06:07:55;5.80;99.90
8463;DHT22;4268;52.506;13.462;2023-12-20T06:10:34;5.40;99.90
8463;DHT22;4268;52.506;13.462;2023-12-20T06:13:00;5.50;99.90
8463;DHT22;4268;52.506;13.462;2023-12-20T06:15:26;5.80;99.90
8463;DHT22;4268;52.506;13.462;2023-12-20T06:17:52;6.70;99.90
8463;DHT22;4268;52.506;13.462;2023-12-20T06:20:18;5.90;99.90
8463;DHT22;4268;52.506;13.462;2023-12-20T06:22:46;5.70;99.90
8463;DHT22;4268;52.506;13.462;2023-12-20T06:25:12;5.60;99.90
8463;DHT22;4268;52.506;13.462;2023-12-20T06:27:38;5.80;99.90
8463;DHT22;4268;52.506;13.462;2023-12-20T06:30:10;5.80;99.90
8463;DHT22;4268;52.506;13.462;2023-12-20T06:32:38;5.10;99.90
8463;DHT22;4268;52.506;13.462;2023-12-20T06:35:08;5.70;99.90
8463;DHT22;4268;52.506;13.462;2023-12-20T06:37:37;5.80;99.90
8463;DHT22;4268;52.506;13.462;2023-12-20T06:40:03;5.80;99.90
8463;DHT22;4268;52.506;13.462;2023-12-20T06:42:32;5.80;99.90
8463;DHT22;4268;52.506;13.462;2023-12-20T06:44:57;5.80;99.90
8463;DHT22;4268;52.506;13.462;2023-12-20T06:47:23;5.90;99.90
8463;DHT22;4268;52.506;13.462;2023-12-20T06:49:48;5.90;99.90
8463;DHT22;4268;52.506;13.462;2023-12-20T06:52:14;5.80;99.90
8463;DHT22;4268;52.506;13.462;2023-12-20T06:54:39;5.90;99.90
8463;DHT22;4268;52.506;13.462;2023-12-20T06:57:05;5.90;99.90
8463;DHT22;4268;52.506;13.462;2023-12-20T06:59:30;5.70;99.90
8463;DHT22;4268;52.506;13.462;2023-12-20T07:01:56;5.90;99.90
8463;DHT22;4268;52.506;13.462;2023-12-20T07:04:21;6.00;99.90
8463;DHT22;4268;52.506;13.462;2023-12-20T07:06:50;6.00;99.90
8463;DHT22;4268;52.506;13.462;2023-12-20T07:09:22;5.80;99.90
8463;DHT22;4268;52.506;13.462;2023-12-20T07:11:48;5.60;99.90
8463;DHT22;4268;52.506;13.462;2023-12-20T07:14:14;6.00;99.90
8463;DHT22;4268;52.506;13.462;2023-12-20T07:16:39;6.80;99.90
8463;DHT22;4268;52.506;13.462;2023-12-20T07:19:06;6.00;99.90
8463;DHT22;4268;52.506;13.462;2023-12-20T07:21:31;6.00;99.90
8463;DHT22;4268;52.506;13.462;2023-12-20T07:23:57;6.10;99.90
8463;DHT22;4268;52.506;13.462;2023-12-20T07:26:22;6.10;99.90
8463;DHT22;4268;52.506;13.462;2023-12-20T07:28:49;6.10;99.90
8463;DHT22;4268;52.506;13.462;2023-12-20T07:31:22;6.10;99.90
8463;DHT22;4268;52.506;13.462;2023-12-20T07:33:51;6.20;99.90
8463;DHT22;4268;52.506;13.462;2023-12-20T07:36:16;6.30;99.90
8463;DHT22;4268;52.506;13.462;2023-12-20T07:38:43;6.10;99.90
8463;DHT22;4268;52.506;13.462;2023-12-20T07:41:12;6.00;99.90
8463;DHT22;4268;52.506;13.462;2023-12-20T07:43:38;6.20;99.90
8463;DHT22;4268;52.506;13.462;2023-12-20T07:46:08;6.20;99.90
8463;DHT22;4268;52.506;13.462;2023-12-20T07:48:37;6.20;99.90
8463;DHT22;4268;52.506;13.462;2023-12-20T07:51:04;6.30;99.90
8463;DHT22;4268;52.506;13.462;2023-12-20T07:53:29;6.20;99.90
8463;DHT22;4268;52.506;13.462;2023-12-20T07:55:55;6.30;99.90
8463;DHT22;4268;52.506;13.462;2023-12-20T07:58:21;6.20;99.90
8463;DHT22;4268;52.506;13.462;2023-12-20T08:00:47;6.20;99.90
8463;DHT22;4268;52.506;13.462;2023-12-20T08:03:13;6.20;99.90
8463;DHT22;4268;52.506;13.462;2023-12-20T08:05:39;7.00;99.90
8463;DHT22;4268;52.506;13.462;2023-12-20T08:08:07;6.30;99.90
8463;DHT22;4268;52.506;13.462;2023-12-20T08:10:33;6.30;99.90
8463;DHT22;4268;52.506;13.462;2023-12-20T08:12:59;6.30;99.90
8463;DHT22;4268;52.506;13.462;2023-12-20T08:15:24;6.30;99.90
8463;DHT22;4268;52.506;13.462;2023-12-20T08:17:50;6.40;99.90
8463;DHT22;4268;52.506;13.462;2023-12-20T08:20:18;6.60;99.90
8463;DHT22;4268;52.506;13.462;2023-12-20T08:22:44;6.80;99.90
8463;DHT22;4268;52.506;13.462;2023-12-20T08:25:10;6.40;99.90
8463;DHT22;4268;52.506;13.462;2023-12-20T08:27:40;6.40;99.90
8463;DHT22;4268;52.506;13.462;2023-12-20T08:30:07;6.30;99.90
8463;DHT22;4268;52.506;13.462;2023-12-20T08:32:33;6.40;99.90
8463;DHT22;4268;52.506;13.462;2023-12-20T08:34:59;5.80;99.90
8463;DHT22;4268;52.506;13.462;2023-12-20T08:37:26;6.50;99.90
8463;DHT22;4268;52.506;13.462;2023-12-20T08:39:52;6.50;99.90
8463;DHT22;4268;52.506;13.462;2023-12-20T08:42:17;6.50;99.90
8463;DHT22;4268;52.506;13.462;2023-12-20T08:44:43;6.50;99.90
8463;DHT22;4268;52.506;13.462;2023-12-20T08:47:08;6.50;99.90
8463;DHT22;4268;52.506;13.462;2023-12-20T08:49:38;6.50;99.90
8463;DHT22;4268;52.506;13.462;2023-12-20T08:52:04;6.60;99.90
8463;DHT22;4268;52.506;13.462;2023-12-20T08:54:30;6.70;99.90
8463;DHT22;4268;52.506;13.462;2023-12-20T08:56:55;6.30;99.90
8463;DHT22;4268;52.506;13.462;2023-12-20T08:59:21;7.00;99.90
8463;DHT22;4268;52.506;13.462;2023-12-20T09:01:46;6.00;99.90
8463;DHT22;4268;52.506;13.462;2023-12-20T09:04:13;6.40;99.90
8463;DHT22;4268;52.506;13.462;2023-12-20T09:06:39;6.60;99.90
8463;DHT22;4268;52.506;13.462;2023-12-20T09:09:04;6.80;99.90
8463;DHT22;4268;52.506;13.462;2023-12-20T09:11:30;6.80;99.90
8463;DHT22;4268;52.506;13.462;2023-12-20T09:13:56;6.90;99.90
8463;DHT22;4268;52.506;13.462;2023-12-20T09:16:21;7.00;99.90
8463;DHT22;4268;52.506;13.462;2023-12-20T09:18:47;7.20;99.90
8463;DHT22;4268;52.506;13.462;2023-12-20T09:21:12;7.10;99.90
8463;DHT22;4268;52.506;13.462;2023-12-20T09:23:38;7.30;99.90
8463;DHT22;4268;52.506;13.462;2023-12-20T09:26:04;7.30;99.90
8463;DHT22;4268;52.506;13.462;2023-12-20T09:28:29;7.20;99.90
8463;DHT22;4268;52.506;13.462;2023-12-20T09:30:55;7.10;99.90
8463;DHT22;4268;52.506;13.462;2023-12-20T09:33:20;8.10;99.90
8463;DHT22;4268;52.506;13.462;2023-12-20T09:35:46;7.10;99.90
8463;DHT22;4268;52.506;13.462;2023-12-20T09:38:12;7.40;99.90
8463;DHT22;4268;52.506;13.462;2023-12-20T09:40:41;7.10;99.90
8463;DHT22;4268;52.506;13.462;2023-12-20T09:43:24;7.50;99.90
8463;DHT22;4268;52.506;13.462;2023-12-20T09:46:04;7.10;99.90
8463;DHT22;4268;52.506;13.462;2023-12-20T09:48:36;7.30;99.90
8463;DHT22;4268;52.506;13.462;2023-12-20T09:51:02;7.10;99.90
8463;DHT22;4268;52.506;13.462;2023-12-20T09:53:29;7.10;99.90
8463;DHT22;4268;52.506;13.462;2023-12-20T09:55:58;7.10;99.90
8463;DHT22;4268;52.506;13.462;2023-12-20T09:58:24;7.10;99.90
8463;DHT22;4268;52.506;13.462;2023-12-20T10:00:50;7.00;99.90
8463;DHT22;4268;52.506;13.462;2023-12-20T10:03:16;7.10;99.90
8463;DHT22;4268;52.506;13.462;2023-12-20T10:05:45;7.10;99.90
8463;DHT22;4268;52.506;13.462;2023-12-20T10:08:12;7.10;99.90
8463;DHT22;4268;52.506;13.462;2023-12-20T10:10:37;7.10;99.90
8463;DHT22;4268;52.506;13.462;2023-12-20T10:13:10;7.10;99.90
8463;DHT22;4268;52.506;13.462;2023-12-20T10:15:37;7.10;99.90
8463;DHT22;4268;52.506;13.462;2023-12-20T10:18:03;7.10;99.90
8463;DHT22;4268;52.506;13.462;2023-12-20T10:20:30;7.10;99.90
8463;DHT22;4268;52.506;13.462;2023-12-20T10:22:56;7.10;99.90
8463;DHT22;4268;52.506;13.462;2023-12-20T10:25:22;7.20;99.90
8463;DHT22;4268;52.506;13.462;2023-12-20T10:27:50;7.10;99.90
8463;DHT22;4268;52.506;13.462;2023-12-20T10:30:16;7.20;99.90
8463;DHT22;4268;52.506;13.462;2023-12-20T10:32:41;7.10;99.90
8463;DHT22;4268;52.506;13.462;2023-12-20T10:35:08;7.10;99.90
8463;DHT22;4268;52.506;13.462;2023-12-20T10:37:37;7.10;99.90
8463;DHT22;4268;52.506;13.462;2023-12-20T10:40:04;7.10;99.90
8463;DHT22;4268;52.506;13.462;2023-12-20T10:42:32;7.10;99.90
8463;DHT22;4268;52.506;13.462;2023-12-20T10:44:59;7.10;99.90
8463;DHT22;4268;52.506;13.462;2023-12-20T10:47:25;7.20;99.90
8463;DHT22;4268;52.506;13.462;2023-12-20T10:49:52;7.20;99.90
8463;DHT22;4268;52.506;13.462;2023-12-20T10:52:19;7.30;99.90
8463;DHT22;4268;52.506;13.462;2023-12-20T10:54:48;7.30;99.90
8463;DHT22;4268;52.506;13.462;2023-12-20T10:57:13;7.30;99.90
8463;DHT22;4268;52.506;13.462;2023-12-20T10:59:41;7.40;99.90
8463;DHT22;4268;52.506;13.462;2023-12-20T11:02:08;7.30;99.90
8463;DHT22;4268;52.506;13.462;2023-12-20T11:04:57;7.30;99.90
8463;DHT22;4268;52.506;13.462;2023-12-20T11:07:38;7.30;99.90
8463;DHT22;4268;52.506;13.462;2023-12-20T11:10:19;7.30;99.90
8463;DHT22;4268;52.506;13.462;2023-12-20T11:13:02;7.30;99.90
8463;DHT22;4268;52.506;13.462;2023-12-20T11:15:35;7.30;99.90
8463;DHT22;4268;52.506;13.462;2023-12-20T11:18:01;7.30;99.90
8463;DHT22;4268;52.506;13.462;2023-12-20T11:20:41;7.40;99.90
8463;DHT22;4268;52.506;13.462;2023-12-20T11:23:08;7.40;99.90
8463;DHT22;4268;52.506;13.462;2023-12-20T11:25:52;7.40;99.90
8463;DHT22;4268;52.506;13.462;2023-12-20T11:28:23;7.40;99.90
8463;DHT22;4268;52.506;13.462;2023-12-20T11:33:39;7.50;99.90
8463;DHT22;4268;52.506;13.462;2023-12-20T11:36:13;7.50;99.90
8463;DHT22;4268;52.506;13.462;2023-12-20T11:38:56;7.40;99.90
8463;DHT22;4268;52.506;13.462;2023-12-20T11:41:23;7.40;99.90
8463;DHT22;4268;52.506;13.462;2023-12-20T11:43:53;7.40;99.90
8463;DHT22;4268;52.506;13.462;2023-12-20T11:46:19;7.30;99.90
8463;DHT22;4268;52.506;13.462;2023-12-20T11:48:44;7.70;99.90
8463;DHT22;4268;52.506;13.462;2023-12-20T11:51:11;7.30;99.90
8463;DHT22;4268;52.506;13.462;2023-12-20T11:53:37;7.30;99.90
8463;DHT22;4268;52.506;13.462;2023-12-20T11:56:05;7.30;99.90
8463;DHT22;4268;52.506;13.462;2023-12-20T11:58:31;7.30;99.90
8463;DHT22;4268;52.506;13.462;2023-12-20T12:00:56;7.30;99.90
8463;DHT22;4268;52.506;13.462;2023-12-20T12:03:22;7.30;99.90
8463;DHT22;4268;52.506;13.462;2023-12-20T12:05:49;7.30;99.90
8463;DHT22;4268;52.506;13.462;2023-12-20T12:08:14;7.30;99.90
8463;DHT22;4268;52.506;13.462;2023-12-20T12:10:40;7.40;99.90
8463;DHT22;4268;52.506;13.462;2023-12-20T12:13:06;7.50;99.90
8463;DHT22;4268;52.506;13.462;2023-12-20T12:15:31;7.50;99.90
8463;DHT22;4268;52.506;13.462;2023-12-20T12:17:57;7.50;99.90
8463;DHT22;4268;52.506;13.462;2023-12-20T12:20:24;7.40;99.90
8463;DHT22;4268;52.506;13.462;2023-12-20T12:22:58;7.40;99.90
8463;DHT22;4268;52.506;13.462;2023-12-20T12:25:24;7.40;99.90
8463;DHT22;4268;52.506;13.462;2023-12-20T12:27:51;7.40;99.90
8463;DHT22;4268;52.506;13.462;2023-12-20T12:30:16;7.50;99.90
8463;DHT22;4268;52.506;13.462;2023-12-20T12:32:44;7.40;99.90
8463;DHT22;4268;52.506;13.462;2023-12-20T12:35:10;7.40;99.90
8463;DHT22;4268;52.506;13.462;2023-12-20T12:37:37;7.40;99.90
8463;DHT22;4268;52.506;13.462;2023-12-20T12:40:14;7.30;99.90
8463;DHT22;4268;52.506;13.462;2023-12-20T12:42:41;7.30;99.90
8463;DHT22;4268;52.506;13.462;2023-12-20T12:45:07;7.20;99.90
8463;DHT22;4268;52.506;13.462;2023-12-20T12:47:34;7.20;99.90
8463;DHT22;4268;52.506;13.462;2023-12-20T12:50:00;7.20;99.90
8463;DHT22;4268;52.506;13.462;2023-12-20T12:52:26;7.20;99.90
8463;DHT22;4268;52.506;13.462;2023-12-20T12:54:52;7.10;99.90
8463;DHT22;4268;52.506;13.462;2023-12-20T12:57:18;7.10;99.90
8463;DHT22;4268;52.506;13.462;2023-12-20T12:59:44;7.10;99.90
8463;DHT22;4268;52.506;13.462;2023-12-20T13:02:12;7.10;99.90
8463;DHT22;4268;52.506;13.462;2023-12-20T13:04:38;7.10;99.90
8463;DHT22;4268;52.506;13.462;2023-12-20T13:07:04;7.10;99.90
8463;DHT22;4268;52.506;13.462;2023-12-20T13:09:29;7.00;99.90
8463;DHT22;4268;52.506;13.462;2023-12-20T13:11:55;7.00;99.90
8463;DHT22;4268;52.506;13.462;2023-12-20T13:14:21;7.00;99.90
8463;DHT22;4268;52.506;13.462;2023-12-20T13:16:47;7.00;99.90
8463;DHT22;4268;52.506;13.462;2023-12-20T13:19:13;7.00;99.90
8463;DHT22;4268;52.506;13.462;2023-12-20T13:21:38;7.00;99.90
8463;DHT22;4268;52.506;13.462;2023-12-20T13:24:05;7.00;99.90
8463;DHT22;4268;52.506;13.462;2023-12-20T13:26:31;7.00;99.90
8463;DHT22;4268;52.506;13.462;2023-12-20T13:28:56;6.90;99.90
8463;DHT22;4268;52.506;13.462;2023-12-20T13:31:22;6.90;99.90
8463;DHT22;4268;52.506;13.462;2023-12-20T13:33:47;6.70;99.90
8463;DHT22;4268;52.506;13.462;2023-12-20T13:36:13;6.60;99.90
8463;DHT22;4268;52.506;13.462;2023-12-20T13:38:39;6.50;99.90
8463;DHT22;4268;52.506;13.462;2023-12-20T13:41:04;6.50;99.90
8463;DHT22;4268;52.506;13.462;2023-12-20T13:43:31;6.50;99.90
8463;DHT22;4268;52.506;13.462;2023-12-20T13:46:00;6.50;99.90
8463;DHT22;4268;52.506;13.462;2023-12-20T13:48:26;6.40;99.90
8463;DHT22;4268;52.506;13.462;2023-12-20T13:50:52;6.40;99.90
8463;DHT22;4268;52.506;13.462;2023-12-20T13:53:17;6.40;99.90
8463;DHT22;4268;52.506;13.462;2023-12-20T13:55:43;6.40;99.90
8463;DHT22;4268;52.506;13.462;2023-12-20T13:58:08;6.30;99.90
8463;DHT22;4268;52.506;13.462;2023-12-20T14:00:35;6.10;99.90
8463;DHT22;4268;52.506;13.462;2023-12-20T14:03:02;6.10;99.90
8463;DHT22;4268;52.506;13.462;2023-12-20T14:05:28;6.10;99.90
8463;DHT22;4268;52.506;13.462;2023-12-20T14:07:53;6.10;99.90
8463;DHT22;4268;52.506;13.462;2023-12-20T14:10:19;6.00;99.90
8463;DHT22;4268;52.506;13.462;2023-12-20T14:12:44;6.00;99.90
8463;DHT22;4268;52.506;13.462;2023-12-20T14:15:11;6.00;99.90
8463;DHT22;4268;52.506;13.462;2023-12-20T14:17:39;5.90;99.90
8463;DHT22;4268;52.506;13.462;2023-12-20T14:20:07;5.90;99.90
8463;DHT22;4268;52.506;13.462;2023-12-20T14:22:34;5.90;99.90
8463;DHT22;4268;52.506;13.462;2023-12-20T14:25:00;5.90;99.90
8463;DHT22;4268;52.506;13.462;2023-12-20T14:27:26;5.90;99.90
8463;DHT22;4268;52.506;13.462;2023-12-20T14:29:53;6.00;99.90
8463;DHT22;4268;52.506;13.462;2023-12-20T14:32:19;6.00;99.90
8463;DHT22;4268;52.506;13.462;2023-12-20T14:34:45;6.00;99.90
8463;DHT22;4268;52.506;13.462;2023-12-20T14:37:10;6.10;99.90
8463;DHT22;4268;52.506;13.462;2023-12-20T14:39:36;6.10;99.90
8463;DHT22;4268;52.506;13.462;2023-12-20T14:42:09;6.10;99.90
8463;DHT22;4268;52.506;13.462;2023-12-20T14:44:38;6.10;99.90
8463;DHT22;4268;52.506;13.462;2023-12-20T14:47:04;6.20;99.90
8463;DHT22;4268;52.506;13.462;2023-12-20T14:49:30;6.10;99.90
8463;DHT22;4268;52.506;13.462;2023-12-20T14:51:56;6.10;99.90
8463;DHT22;4268;52.506;13.462;2023-12-20T14:54:21;6.10;99.90
8463;DHT22;4268;52.506;13.462;2023-12-20T14:56:47;6.10;99.90
8463;DHT22;4268;52.506;13.462;2023-12-20T14:59:13;6.10;99.90
8463;DHT22;4268;52.506;13.462;2023-12-20T15:01:39;6.10;99.90
8463;DHT22;4268;52.506;13.462;2023-12-20T15:04:06;6.10;99.90
8463;DHT22;4268;52.506;13.462;2023-12-20T15:06:32;5.90;99.90
8463;DHT22;4268;52.506;13.462;2023-12-20T15:08:59;6.00;99.90
8463;DHT22;4268;52.506;13.462;2023-12-20T15:11:25;6.10;99.90
8463;DHT22;4268;52.506;13.462;2023-12-20T15:13:51;6.10;99.90
8463;DHT22;4268;52.506;13.462;2023-12-20T15:16:22;6.10;99.90
8463;DHT22;4268;52.506;13.462;2023-12-20T15:18:47;6.10;99.90
8463;DHT22;4268;52.506;13.462;2023-12-20T15:21:14;6.10;99.90
8463;DHT22;4268;52.506;13.462;2023-12-20T15:23:39;6.10;99.90
8463;DHT22;4268;52.506;13.462;2023-12-20T15:26:09;6.10;99.90
8463;DHT22;4268;52.506;13.462;2023-12-20T15:28:34;6.10;99.90
8463;DHT22;4268;52.506;13.462;2023-12-20T15:31:00;6.10;99.90
8463;DHT22;4268;52.506;13.462;2023-12-20T15:33:25;6.10;99.90
8463;DHT22;4268;52.506;13.462;2023-12-20T15:35:51;6.00;99.90
8463;DHT22;4268;52.506;13.462;2023-12-20T15:38:16;5.90;99.90
8463;DHT22;4268;52.506;13.462;2023-12-20T15:40:42;5.80;99.90
8463;DHT22;4268;52.506;13.462;2023-12-20T15:43:07;5.80;99.90
8463;DHT22;4268;52.506;13.462;2023-12-20T15:45:33;5.80;99.90
8463;DHT22;4268;52.506;13.462;2023-12-20T15:47:59;5.70;99.90
8463;DHT22;4268;52.506;13.462;2023-12-20T15:50:24;5.60;99.90
8463;DHT22;4268;52.506;13.462;2023-12-20T15:52:50;5.60;99.90
8463;DHT22;4268;52.506;13.462;2023-12-20T15:55:15;5.60;99.90
8463;DHT22;4268;52.506;13.462;2023-12-20T15:57:41;5.50;99.90
8463;DHT22;4268;52.506;13.462;2023-12-20T16:00:07;5.50;99.90
8463;DHT22;4268;52.506;13.462;2023-12-20T16:02:33;5.40;99.90